sensor_id;sensor_type;location;lat;lon;timestamp;pressure;altitude;pressure_sealevel;temperature;humidity
18533;BME280;9396;51.510;11.934;2024-02-26T00:01:02;99256.81;;;4.18;98.38
18533;BME280;9396;51.510;11.934;2024-02-26T00:03:30;99249.44;;;4.21;98.38
18533;BME280;9396;51.510;11.934;2024-02-26T00:05:58;99247.38;;;4.25;98.30
18533;BME280;9396;51.510;11.934;2024-02-26T00:08:25;99244.88;;;4.23;97.83
18533;BME280;9396;51.510;11.934;2024-02-26T00:10:51;99245.84;;;4.22;97.55
18533;BME280;9396;51.510;11.934;2024-02-26T00:13:18;99241.56;;;4.21;97.63
18533;BME280;9396;51.510;11.934;2024-02-26T00:15:45;99248.78;;;4.10;97.39
18533;BME280;9396;51.510;11.934;2024-02-26T00:18:12;99242.00;;;4.07;97.49
18533;BME280;9396;51.510;11.934;2024-02-26T00:20:40;99238.00;;;4.03;97.52
18533;BME280;9396;51.510;11.934;2024-02-26T00:23:08;99233.69;;;4.02;97.69
18533;BME280;9396;51.510;11.934;2024-02-26T00:25:35;99233.69;;;4.02;97.77
18533;BME280;9396;51.510;11.934;2024-02-26T00:28:03;99232.47;;;3.87;97.80
18533;BME280;9396;51.510;11.934;2024-02-26T00:30:30;99234.84;;;3.81;98.04
18533;BME280;9396;51.510;11.934;2024-02-26T00:32:56;99228.91;;;3.79;98.32
18533;BME280;9396;51.510;11.934;2024-02-26T00:35:23;99233.56;;;3.85;98.28
18533;BME280;9396;51.510;11.934;2024-02-26T00:37:51;99235.09;;;3.87;97.99
18533;BME280;9396;51.510;11.934;2024-02-26T00:40:18;99232.22;;;3.71;98.26
18533;BME280;9396;51.510;11.934;2024-02-26T00:42:45;99218.94;;;3.73;98.35
18533;BME280;9396;51.510;11.934;2024-02-26T00:45:13;99225.56;;;3.67;98.80
18533;BME280;9396;51.510;11.934;2024-02-26T00:47:40;99219.22;;;3.70;98.99
18533;BME280;9396;51.510;11.934;2024-02-26T00:50:07;99214.34;;;3.75;98.81
18533;BME280;9396;51.510;11.934;2024-02-26T00:52:34;99217.81;;;3.75;98.43
18533;BME280;9396;51.510;11.934;2024-02-26T00:55:03;99224.59;;;3.87;98.28
18533;BME280;9396;51.510;11.934;2024-02-26T00:57:30;99223.59;;;3.88;97.98
18533;BME280;9396;51.510;11.934;2024-02-26T00:59:56;99217.09;;;3.83;97.69
18533;BME280;9396;51.510;11.934;2024-02-26T01:02:24;99221.56;;;3.82;97.51
18533;BME280;9396;51.510;11.934;2024-02-26T01:04:51;99213.25;;;3.77;97.64
18533;BME280;9396;51.510;11.934;2024-02-26T01:07:17;99225.44;;;3.78;97.31
18533;BME280;9396;51.510;11.934;2024-02-26T01:09:43;99221.41;;;3.74;97.23
18533;BME280;9396;51.510;11.934;2024-02-26T01:12:11;99214.34;;;3.65;97.64
18533;BME280;9396;51.510;11.934;2024-02-26T01:14:37;99219.09;;;3.52;97.88
18533;BME280;9396;51.510;11.934;2024-02-26T01:17:04;99213.09;;;3.60;97.96
18533;BME280;9396;51.510;11.934;2024-02-26T01:19:31;99212.72;;;3.64;97.84
18533;BME280;9396;51.510;11.934;2024-02-26T01:21:57;99200.94;;;3.49;98.09
18533;BME280;9396;51.510;11.934;2024-02-26T01:24:24;99206.47;;;3.46;98.03
18533;BME280;9396;51.510;11.934;2024-02-26T01:26:51;99194.03;;;3.48;98.06
18533;BME280;9396;51.510;11.934;2024-02-26T01:29:19;99197.38;;;3.50;97.69
18533;BME280;9396;51.510;11.934;2024-02-26T01:31:45;99195.44;;;3.52;98.00
18533;BME280;9396;51.510;11.934;2024-02-26T01:34:12;99191.53;;;3.56;97.83
18533;BME280;9396;51.510;11.934;2024-02-26T01:36:39;99182.28;;;3.52;98.08
18533;BME280;9396;51.510;11.934;2024-02-26T01:39:06;99181.72;;;3.58;97.81
18533;BME280;9396;51.510;11.934;2024-02-26T01:41:33;99187.09;;;3.57;97.95
18533;BME280;9396;51.510;11.934;2024-02-26T01:43:59;99184.38;;;3.49;97.92
18533;BME280;9396;51.510;11.934;2024-02-26T01:46:29;99187.94;;;3.48;97.61
18533;BME280;9396;51.510;11.934;2024-02-26T01:48:56;99178.28;;;3.29;97.57
18533;BME280;9396;51.510;11.934;2024-02-26T01:51:23;99176.34;;;3.21;97.99
18533;BME280;9396;51.510;11.934;2024-02-26T01:53:50;99171.34;;;3.09;98.52
18533;BME280;9396;51.510;11.934;2024-02-26T01:56:18;99173.72;;;3.21;98.69
18533;BME280;9396;51.510;11.934;2024-02-26T01:58:46;99165.00;;;3.31;98.64
18533;BME280;9396;51.510;11.934;2024-02-26T02:01:15;99166.66;;;3.32;98.78
18533;BME280;9396;51.510;11.934;2024-02-26T02:03:44;99162.22;;;3.32;98.16
18533;BME280;9396;51.510;11.934;2024-02-26T02:06:12;99174.66;;;3.30;98.37
18533;BME280;9396;51.510;11.934;2024-02-26T02:08:39;99173.28;;;3.16;98.29
18533;BME280;9396;51.510;11.934;2024-02-26T02:11:06;99179.94;;;3.11;98.82
18533;BME280;9396;51.510;11.934;2024-02-26T02:13:33;99173.44;;;3.15;98.46
18533;BME280;9396;51.510;11.934;2024-02-26T02:15:59;99176.19;;;3.04;98.51
18533;BME280;9396;51.510;11.934;2024-02-26T02:18:26;99171.72;;;2.85;99.24
18533;BME280;9396;51.510;11.934;2024-02-26T02:20:54;99174.91;;;2.89;99.89
18533;BME280;9396;51.510;11.934;2024-02-26T02:23:24;99178.66;;;2.96;100.00
18533;BME280;9396;51.510;11.934;2024-02-26T02:25:51;99177.16;;;2.93;100.00
18533;BME280;9396;51.510;11.934;2024-02-26T02:28:18;99182.94;;;2.97;99.64
18533;BME280;9396;51.510;11.934;2024-02-26T02:30:45;99181.84;;;2.99;99.74
18533;BME280;9396;51.510;11.934;2024-02-26T02:33:12;99176.31;;;3.02;100.00
18533;BME280;9396;51.510;11.934;2024-02-26T02:35:40;99175.63;;;3.00;99.92
18533;BME280;9396;51.510;11.934;2024-02-26T02:38:08;99182.66;;;3.00;100.00
18533;BME280;9396;51.510;11.934;2024-02-26T02:40:35;99188.34;;;3.05;99.86
18533;BME280;9396;51.510;11.934;2024-02-26T02:43:02;99192.63;;;3.06;99.69
18533;BME280;9396;51.510;11.934;2024-02-26T02:45:29;99197.34;;;3.12;99.80
18533;BME280;9396;51.510;11.934;2024-02-26T02:47:56;99197.19;;;3.13;100.00
18533;BME280;9396;51.510;11.934;2024-02-26T02:50:23;99195.00;;;3.18;99.80
18533;BME280;9396;51.510;11.934;2024-02-26T02:52:49;99209.22;;;3.16;100.00
18533;BME280;9396;51.510;11.934;2024-02-26T02:55:17;99202.59;;;3.21;99.83
18533;BME280;9396;51.510;11.934;2024-02-26T02:57:44;99208.41;;;3.25;99.61
18533;BME280;9396;51.510;11.934;2024-02-26T03:00:12;99218.09;;;3.24;99.39
18533;BME280;9396;51.510;11.934;2024-02-26T03:02:38;99217.81;;;3.27;99.68
18533;BME280;9396;51.510;11.934;2024-02-26T03:05:06;99212.44;;;3.29;99.71
18533;BME280;9396;51.510;11.934;2024-02-26T03:07:32;99221.69;;;3.33;99.60
18533;BME280;9396;51.510;11.934;2024-02-26T03:09:59;99216.44;;;3.33;99.47
18533;BME280;9396;51.510;11.934;2024-02-26T03:12:27;99219.06;;;3.23;99.19
18533;BME280;9396;51.510;11.934;2024-02-26T03:14:54;99228.88;;;3.21;99.58
18533;BME280;9396;51.510;11.934;2024-02-26T03:17:20;99227.75;;;3.05;99.57
18533;BME280;9396;51.510;11.934;2024-02-26T03:19:49;99227.75;;;3.05;100.00
18533;BME280;9396;51.510;11.934;2024-02-26T03:22:18;99228.72;;;3.04;100.00
18533;BME280;9396;51.510;11.934;2024-02-26T03:24:45;99227.41;;;2.89;100.00
18533;BME280;9396;51.510;11.934;2024-02-26T03:27:12;99215.56;;;2.94;100.00
18533;BME280;9396;51.510;11.934;2024-02-26T03:29:41;99224.97;;;3.06;100.00
18533;BME280;9396;51.510;11.934;2024-02-26T03:32:07;99222.50;;;3.14;100.00
18533;BME280;9396;51.510;11.934;2024-02-26T03:34:34;99224.72;;;3.19;100.00
18533;BME280;9396;51.510;11.934;2024-02-26T03:37:00;99212.00;;;3.24;100.00
18533;BME280;9396;51.510;11.934;2024-02-26T03:39:27;99221.13;;;3.29;99.77
18533;BME280;9396;51.510;11.934;2024-02-26T03:41:54;99216.44;;;3.33;99.06
18533;BME280;9396;51.510;11.934;2024-02-26T03:44:20;99223.91;;;3.28;98.92
18533;BME280;9396;51.510;11.934;2024-02-26T03:46:48;99217.25;;;3.24;98.08
18533;BME280;9396;51.510;11.934;2024-02-26T03:49:15;99223.75;;;3.20;97.72
18533;BME280;9396;51.510;11.934;2024-02-26T03:51:42;99228.47;;;3.16;98.40
18533;BME280;9396;51.510;11.934;2024-02-26T03:54:08;99229.72;;;3.22;98.04
18533;BME280;9396;51.510;11.934;2024-02-26T03:56:35;99223.75;;;3.20;98.12
18533;BME280;9396;51.510;11.934;2024-02-26T03:59:01;99224.81;;;3.08;97.56
18533;BME280;9396;51.510;11.934;2024-02-26T04:01:27;99214.59;;;2.95;98.37
18533;BME280;9396;51.510;11.934;2024-02-26T04:03:55;99222.63;;;3.03;98.22
18533;BME280;9396;51.510;11.934;2024-02-26T04:06:22;99229.53;;;3.04;97.96
18533;BME280;9396;51.510;11.934;2024-02-26T04:08:49;99234.53;;;3.07;98.31
18533;BME280;9396;51.510;11.934;2024-02-26T04:11:15;99237.72;;;3.11;98.26
18533;BME280;9396;51.510;11.934;2024-02-26T04:13:44;99233.66;;;2.88;97.24
18533;BME280;9396;51.510;11.934;2024-02-26T04:16:14;99237.69;;;2.92;97.46
18533;BME280;9396;51.510;11.934;2024-02-26T04:18:41;99238.75;;;2.89;98.23
18533;BME280;9396;51.510;11.934;2024-02-26T04:21:09;99238.09;;;2.97;97.82
18533;BME280;9396;51.510;11.934;2024-02-26T04:23:36;99225.38;;;3.02;97.85
18533;BME280;9396;51.510;11.934;2024-02-26T04:26:03;99229.25;;;2.98;97.77
18533;BME280;9396;51.510;11.934;2024-02-26T04:28:30;99235.91;;;3.02;98.33
18533;BME280;9396;51.510;11.934;2024-02-26T04:30:57;99238.63;;;2.91;97.89
18533;BME280;9396;51.510;11.934;2024-02-26T04:33:23;99230.22;;;2.97;98.11
18533;BME280;9396;51.510;11.934;2024-02-26T04:35:50;99234.91;;;3.03;98.41
18533;BME280;9396;51.510;11.934;2024-02-26T04:38:18;99237.16;;;3.07;97.97
18533;BME280;9396;51.510;11.934;2024-02-26T04:40:45;99229.94;;;3.00;98.13
18533;BME280;9396;51.510;11.934;2024-02-26T04:43:12;99237.81;;;3.00;98.40
18533;BME280;9396;51.510;11.934;2024-02-26T04:45:39;99236.84;;;3.01;98.38
18533;BME280;9396;51.510;11.934;2024-02-26T04:48:06;99246.25;;;3.03;97.99
18533;BME280;9396;51.510;11.934;2024-02-26T04:50:33;99241.00;;;3.03;98.41
18533;BME280;9396;51.510;11.934;2024-02-26T04:53:00;99238.53;;;3.02;98.07
18533;BME280;9396;51.510;11.934;2024-02-26T04:55:28;99238.25;;;3.05;98.56
18533;BME280;9396;51.510;11.934;2024-02-26T04:57:55;99236.03;;;3.10;98.12
18533;BME280;9396;51.510;11.934;2024-02-26T05:00:21;99242.38;;;2.98;97.63
18533;BME280;9396;51.510;11.934;2024-02-26T05:02:48;99239.91;;;3.06;97.87
18533;BME280;9396;51.510;11.934;2024-02-26T05:05:14;99242.66;;;3.04;97.90
18533;BME280;9396;51.510;11.934;2024-02-26T05:07:41;99246.81;;;3.07;97.85
18533;BME280;9396;51.510;11.934;2024-02-26T05:10:09;99245.16;;;3.06;98.35
18533;BME280;9396;51.510;11.934;2024-02-26T05:12:37;99251.78;;;3.10;97.87
18533;BME280;9396;51.510;11.934;2024-02-26T05:15:04;99257.59;;;3.13;97.93
18533;BME280;9396;51.510;11.934;2024-02-26T05:17:31;99265.09;;;3.18;97.65
18533;BME280;9396;51.510;11.934;2024-02-26T05:19:58;99261.03;;;3.04;97.54
18533;BME280;9396;51.510;11.934;2024-02-26T05:22:24;99255.38;;;2.99;97.83
18533;BME280;9396;51.510;11.934;2024-02-26T05:24:51;99262.59;;;3.07;98.08
18533;BME280;9396;51.510;11.934;2024-02-26T05:27:18;99253.16;;;2.95;98.17
18533;BME280;9396;51.510;11.934;2024-02-26T05:29:45;99259.50;;;2.92;98.03
18533;BME280;9396;51.510;11.934;2024-02-26T05:32:12;99266.03;;;2.68;99.51
18533;BME280;9396;51.510;11.934;2024-02-26T05:34:39;99258.03;;;2.69;99.78
18533;BME280;9396;51.510;11.934;2024-02-26T05:37:06;99252.13;;;2.77;99.34
18533;BME280;9396;51.510;11.934;2024-02-26T05:39:33;99252.88;;;2.88;99.56
18533;BME280;9396;51.510;11.934;2024-02-26T05:42:00;99249.56;;;2.96;99.35
18533;BME280;9396;51.510;11.934;2024-02-26T05:44:27;99245.69;;;3.00;99.56
18533;BME280;9396;51.510;11.934;2024-02-26T05:46:55;99256.25;;;3.09;99.27
18533;BME280;9396;51.510;11.934;2024-02-26T05:49:22;99248.78;;;3.14;98.68
18533;BME280;9396;51.510;11.934;2024-02-26T05:51:49;99244.09;;;3.18;98.95
18533;BME280;9396;51.510;11.934;2024-02-26T05:54:15;99244.38;;;3.15;98.55
18533;BME280;9396;51.510;11.934;2024-02-26T05:56:42;99242.41;;;3.17;98.62
18533;BME280;9396;51.510;11.934;2024-02-26T05:59:09;99246.28;;;3.13;98.90
18533;BME280;9396;51.510;11.934;2024-02-26T06:01:35;99253.75;;;3.17;99.27
18533;BME280;9396;51.510;11.934;2024-02-26T06:04:03;99259.56;;;3.21;99.40
18533;BME280;9396;51.510;11.934;2024-02-26T06:06:30;99261.50;;;3.19;99.60
18533;BME280;9396;51.510;11.934;2024-02-26T06:08:57;99264.28;;;3.27;100.00
18533;BME280;9396;51.510;11.934;2024-02-26T06:11:24;99255.72;;;3.35;100.00
18533;BME280;9396;51.510;11.934;2024-02-26T06:13:50;99265.53;;;3.42;100.00
18533;BME280;9396;51.510;11.934;2024-02-26T06:16:17;99256.41;;;3.46;100.00
18533;BME280;9396;51.510;11.934;2024-02-26T06:18:43;99274.28;;;3.52;100.00
18533;BME280;9396;51.510;11.934;2024-02-26T06:21:11;99285.50;;;3.54;100.00
18533;BME280;9396;51.510;11.934;2024-02-26T06:23:38;99281.19;;;3.53;100.00
18533;BME280;9396;51.510;11.934;2024-02-26T06:26:05;99272.47;;;3.53;100.00
18533;BME280;9396;51.510;11.934;2024-02-26T06:28:32;99277.88;;;3.51;100.00
18533;BME280;9396;51.510;11.934;2024-02-26T06:31:00;99279.78;;;3.49;100.00
18533;BME280;9396;51.510;11.934;2024-02-26T06:33:27;99282.16;;;3.52;100.00
18533;BME280;9396;51.510;11.934;2024-02-26T06:35:54;99284.81;;;3.52;100.00
18533;BME280;9396;51.510;11.934;2024-02-26T06:38:22;99284.22;;;3.58;100.00
18533;BME280;9396;51.510;11.934;2024-02-26T06:40:49;99281.75;;;3.66;100.00
18533;BME280;9396;51.510;11.934;2024-02-26T06:43:16;99287.72;;;3.68;100.00
18533;BME280;9396;51.510;11.934;2024-02-26T06:45:42;99293.38;;;3.73;100.00
18533;BME280;9396;51.510;11.934;2024-02-26T06:48:09;99291.03;;;3.80;100.00
18533;BME280;9396;51.510;11.934;2024-02-26T06:50:35;99295.88;;;3.84;100.00
18533;BME280;9396;51.510;11.934;2024-02-26T06:53:02;99297.09;;;3.90;100.00
18533;BME280;9396;51.510;11.934;2024-02-26T06:55:30;99293.63;;;3.99;100.00
18533;BME280;9396;51.510;11.934;2024-02-26T06:57:57;99305.81;;;4.09;100.00
18533;BME280;9396;51.510;11.934;2024-02-26T07:00:24;99299.16;;;4.15;100.00
18533;BME280;9396;51.510;11.934;2024-02-26T07:02:50;99302.50;;;4.17;100.00
18533;BME280;9396;51.510;11.934;2024-02-26T07:05:17;99309.25;;;4.29;100.00
18533;BME280;9396;51.510;11.934;2024-02-26T07:07:43;99308.94;;;4.42;100.00
18533;BME280;9396;51.510;11.934;2024-02-26T07:10:10;99307.28;;;4.50;100.00
18533;BME280;9396;51.510;11.934;2024-02-26T07:12:39;99305.91;;;4.56;100.00
18533;BME280;9396;51.510;11.934;2024-02-26T07:15:06;99309.06;;;4.59;100.00
18533;BME280;9396;51.510;11.934;2024-02-26T07:17:33;99309.72;;;4.71;100.00
18533;BME280;9396;51.510;11.934;2024-02-26T07:20:00;99314.97;;;4.80;100.00
18533;BME280;9396;51.510;11.934;2024-02-26T07:22:29;99322.13;;;4.88;100.00
18533;BME280;9396;51.510;11.934;2024-02-26T07:24:56;99315.44;;;4.57;100.00
18533;BME280;9396;51.510;11.934;2024-02-26T07:27:23;99321.47;;;4.76;100.00
18533;BME280;9396;51.510;11.934;2024-02-26T07:29:51;99316.91;;;4.78;100.00
18533;BME280;9396;51.510;11.934;2024-02-26T07:32:18;99320.78;;;4.84;100.00
18533;BME280;9396;51.510;11.934;2024-02-26T07:34:44;99314.50;;;4.85;100.00
18533;BME280;9396;51.510;11.934;2024-02-26T07:37:11;99313.81;;;4.83;100.00
18533;BME280;9396;51.510;11.934;2024-02-26T07:39:38;99316.25;;;5.03;100.00
18533;BME280;9396;51.510;11.934;2024-02-26T07:42:04;99311.03;;;5.21;100.00
18533;BME280;9396;51.510;11.934;2024-02-26T07:44:32;99306.72;;;5.20;100.00
18533;BME280;9396;51.510;11.934;2024-02-26T07:47:01;99313.28;;;5.16;100.00
18533;BME280;9396;51.510;11.934;2024-02-26T07:49:26;99315.09;;;5.15;100.00
18533;BME280;9396;51.510;11.934;2024-02-26T07:51:53;99310.50;;;5.17;100.00
18533;BME280;9396;51.510;11.934;2024-02-26T07:54:20;99317.69;;;5.25;100.00
18533;BME280;9396;51.510;11.934;2024-02-26T07:56:46;99307.19;;;5.15;100.00
18533;BME280;9396;51.510;11.934;2024-02-26T07:59:13;99310.91;;;5.13;100.00
18533;BME280;9396;51.510;11.934;2024-02-26T08:01:40;99309.88;;;5.23;100.00
18533;BME280;9396;51.510;11.934;2024-02-26T08:04:08;99306.97;;;5.26;100.00
18533;BME280;9396;51.510;11.934;2024-02-26T08:06:35;99319.81;;;5.39;100.00
18533;BME280;9396;51.510;11.934;2024-02-26T08:09:01;99318.25;;;5.46;100.00
18533;BME280;9396;51.510;11.934;2024-02-26T08:11:29;99304.25;;;5.81;100.00
18533;BME280;9396;51.510;11.934;2024-02-26T08:13:56;99314.69;;;6.00;100.00
18533;BME280;9396;51.510;11.934;2024-02-26T08:16:24;99307.03;;;6.14;100.00
18533;BME280;9396;51.510;11.934;2024-02-26T08:18:51;99309.69;;;5.97;100.00
18533;BME280;9396;51.510;11.934;2024-02-26T08:21:18;99308.47;;;6.09;100.00
18533;BME280;9396;51.510;11.934;2024-02-26T08:23:45;99313.16;;;5.80;100.00
18533;BME280;9396;51.510;11.934;2024-02-26T08:26:12;99323.88;;;5.78;100.00
18533;BME280;9396;51.510;11.934;2024-02-26T08:28:38;99316.28;;;6.10;100.00
18533;BME280;9396;51.510;11.934;2024-02-26T08:31:05;99322.66;;;6.25;100.00
18533;BME280;9396;51.510;11.934;2024-02-26T08:33:32;99321.25;;;6.13;100.00
18533;BME280;9396;51.510;11.934;2024-02-26T08:36:04;99324.63;;;5.88;100.00
18533;BME280;9396;51.510;11.934;2024-02-26T08:38:32;99322.00;;;5.88;100.00
18533;BME280;9396;51.510;11.934;2024-02-26T08:41:00;99328.41;;;6.21;100.00
18533;BME280;9396;51.510;11.934;2024-02-26T08:43:27;99334.75;;;6.10;100.00
18533;BME280;9396;51.510;11.934;2024-02-26T08:45:54;99342.66;;;6.10;100.00
18533;BME280;9396;51.510;11.934;2024-02-26T08:48:21;99337.13;;;6.21;100.00
18533;BME280;9396;51.510;11.934;2024-02-26T08:50:47;99347.63;;;6.13;100.00
18533;BME280;9396;51.510;11.934;2024-02-26T08:53:14;99335.94;;;6.16;100.00
18533;BME280;9396;51.510;11.934;2024-02-26T08:55:42;99345.19;;;6.37;100.00
18533;BME280;9396;51.510;11.934;2024-02-26T08:58:09;99343.97;;;6.49;100.00
18533;BME280;9396;51.510;11.934;2024-02-26T09:00:35;99335.84;;;6.69;100.00
18533;BME280;9396;51.510;11.934;2024-02-26T09:03:02;99335.38;;;6.47;100.00
18533;BME280;9396;51.510;11.934;2024-02-26T09:05:29;99335.22;;;6.49;100.00
18533;BME280;9396;51.510;11.934;2024-02-26T09:07:56;99343.00;;;6.50;100.00
18533;BME280;9396;51.510;11.934;2024-02-26T09:10:23;99340.47;;;6.67;100.00
18533;BME280;9396;51.510;11.934;2024-02-26T09:12:51;99336.56;;;6.79;100.00
18533;BME280;9396;51.510;11.934;2024-02-26T09:15:17;99338.91;;;6.82;100.00
18533;BME280;9396;51.510;11.934;2024-02-26T09:17:44;99333.22;;;6.69;100.00
18533;BME280;9396;51.510;11.934;2024-02-26T09:20:11;99335.84;;;6.69;100.00
18533;BME280;9396;51.510;11.934;2024-02-26T09:22:39;99332.28;;;6.78;100.00
18533;BME280;9396;51.510;11.934;2024-02-26T09:25:06;99325.13;;;6.96;100.00
18533;BME280;9396;51.510;11.934;2024-02-26T09:27:32;99325.75;;;6.90;100.00
18533;BME280;9396;51.510;11.934;2024-02-26T09:30:00;99319.63;;;6.89;100.00
18533;BME280;9396;51.510;11.934;2024-02-26T09:32:28;99328.34;;;6.82;100.00
18533;BME280;9396;51.510;11.934;2024-02-26T09:34:55;99331.03;;;6.90;100.00
18533;BME280;9396;51.510;11.934;2024-02-26T09:37:22;99329.38;;;6.89;100.00
18533;BME280;9396;51.510;11.934;2024-02-26T09:39:48;99337.66;;;6.94;100.00
18533;BME280;9396;51.510;11.934;2024-02-26T09:42:17;99335.63;;;6.88;100.00
18533;BME280;9396;51.510;11.934;2024-02-26T09:44:45;99341.41;;;7.17;100.00
18533;BME280;9396;51.510;11.934;2024-02-26T09:47:14;99331.84;;;7.24;100.00
18533;BME280;9396;51.510;11.934;2024-02-26T09:49:43;99342.34;;;7.41;100.00
18533;BME280;9396;51.510;11.934;2024-02-26T09:52:10;99352.75;;;7.35;100.00
18533;BME280;9396;51.510;11.934;2024-02-26T09:54:36;99350.00;;;7.60;100.00
18533;BME280;9396;51.510;11.934;2024-02-26T09:57:05;99347.06;;;7.64;100.00
18533;BME280;9396;51.510;11.934;2024-02-26T09:59:41;99353.81;;;7.66;100.00
18533;BME280;9396;51.510;11.934;2024-02-26T10:02:13;99344.09;;;7.75;100.00
18533;BME280;9396;51.510;11.934;2024-02-26T10:04:40;99344.28;;;7.81;100.00
18533;BME280;9396;51.510;11.934;2024-02-26T10:07:10;99348.56;;;7.82;100.00
18533;BME280;9396;51.510;11.934;2024-02-26T10:09:38;99344.63;;;7.86;100.00
18533;BME280;9396;51.510;11.934;2024-02-26T10:12:06;99342.66;;;7.88;100.00
18533;BME280;9396;51.510;11.934;2024-02-26T10:14:33;99350.41;;;7.90;100.00
18533;BME280;9396;51.510;11.934;2024-02-26T10:17:01;99356.88;;;7.95;100.00
18533;BME280;9396;51.510;11.934;2024-02-26T10:19:30;99349.41;;;7.91;100.00
18533;BME280;9396;51.510;11.934;2024-02-26T10:21:57;99352.59;;;8.02;100.00
18533;BME280;9396;51.510;11.934;2024-02-26T10:24:24;99352.28;;;8.21;100.00
18533;BME280;9396;51.510;11.934;2024-02-26T10:26:51;99354.97;;;8.29;99.99
18533;BME280;9396;51.510;11.934;2024-02-26T10:29:19;99355.28;;;8.26;100.00
18533;BME280;9396;51.510;11.934;2024-02-26T10:31:46;99353.16;;;8.38;100.00
18533;BME280;9396;51.510;11.934;2024-02-26T10:34:13;99352.31;;;8.37;99.42
18533;BME280;9396;51.510;11.934;2024-02-26T10:36:42;99354.28;;;8.51;98.61
18533;BME280;9396;51.510;11.934;2024-02-26T10:39:12;99358.09;;;8.41;98.80
18533;BME280;9396;51.510;11.934;2024-02-26T10:41:39;99364.69;;;8.21;98.59
18533;BME280;9396;51.510;11.934;2024-02-26T10:44:08;99345.53;;;8.43;99.63
18533;BME280;9396;51.510;11.934;2024-02-26T10:46:36;99346.66;;;8.40;98.75
18533;BME280;9396;51.510;11.934;2024-02-26T10:49:04;99347.03;;;8.45;100.00
18533;BME280;9396;51.510;11.934;2024-02-26T10:51:31;99342.03;;;8.42;98.63
18533;BME280;9396;51.510;11.934;2024-02-26T10:54:02;99345.88;;;8.40;96.74
18533;BME280;9396;51.510;11.934;2024-02-26T10:56:33;99345.69;;;8.33;95.08
18533;BME280;9396;51.510;11.934;2024-02-26T10:59:01;99348.16;;;8.35;95.00
18533;BME280;9396;51.510;11.934;2024-02-26T11:01:28;99350.50;;;8.38;94.84
18533;BME280;9396;51.510;11.934;2024-02-26T11:03:57;99347.34;;;8.42;93.87
18533;BME280;9396;51.510;11.934;2024-02-26T11:06:27;99350.81;;;8.51;94.61
18533;BME280;9396;51.510;11.934;2024-02-26T11:08:55;99342.06;;;8.50;93.41
18533;BME280;9396;51.510;11.934;2024-02-26T11:11:25;99356.13;;;8.59;92.78
18533;BME280;9396;51.510;11.934;2024-02-26T11:13:53;99339.88;;;8.62;92.84
18533;BME280;9396;51.510;11.934;2024-02-26T11:16:21;99340.84;;;8.69;92.93
18533;BME280;9396;51.510;11.934;2024-02-26T11:18:48;99338.38;;;8.76;92.95
18533;BME280;9396;51.510;11.934;2024-02-26T11:21:15;99331.41;;;8.83;92.32
18533;BME280;9396;51.510;11.934;2024-02-26T11:23:44;99331.38;;;8.99;92.66
18533;BME280;9396;51.510;11.934;2024-02-26T11:26:12;99326.38;;;9.04;91.42
18533;BME280;9396;51.510;11.934;2024-02-26T11:28:42;99338.63;;;9.13;91.62
18533;BME280;9396;51.510;11.934;2024-02-26T11:31:10;99328.31;;;9.10;90.24
18533;BME280;9396;51.510;11.934;2024-02-26T11:33:39;99331.31;;;9.15;89.23
18533;BME280;9396;51.510;11.934;2024-02-26T11:36:08;99329.31;;;9.17;89.64
18533;BME280;9396;51.510;11.934;2024-02-26T11:38:36;99316.50;;;9.28;89.25
18533;BME280;9396;51.510;11.934;2024-02-26T11:41:04;99330.06;;;9.33;88.79
18533;BME280;9396;51.510;11.934;2024-02-26T11:43:51;99322.78;;;9.35;87.83
18533;BME280;9396;51.510;11.934;2024-02-26T11:46:28;99323.53;;;9.52;89.48
18533;BME280;9396;51.510;11.934;2024-02-26T11:48:59;99326.25;;;9.66;88.97
18533;BME280;9396;51.510;11.934;2024-02-26T11:51:26;99316.13;;;9.70;87.95
18533;BME280;9396;51.510;11.934;2024-02-26T11:53:52;99321.56;;;9.77;87.81
18533;BME280;9396;51.510;11.934;2024-02-26T11:56:25;99314.47;;;9.92;88.40
18533;BME280;9396;51.510;11.934;2024-02-26T11:58:59;99320.72;;;9.76;86.75
18533;BME280;9396;51.510;11.934;2024-02-26T12:01:39;99320.25;;;9.72;86.99
18533;BME280;9396;51.510;11.934;2024-02-26T12:04:07;99327.72;;;9.77;86.83
18533;BME280;9396;51.510;11.934;2024-02-26T12:06:45;99318.72;;;9.78;86.70
18533;BME280;9396;51.510;11.934;2024-02-26T12:09:12;99320.91;;;9.74;87.11
18533;BME280;9396;51.510;11.934;2024-02-26T12:11:40;99319.56;;;9.79;87.50
18533;BME280;9396;51.510;11.934;2024-02-26T12:14:10;99315.69;;;9.89;89.02
18533;BME280;9396;51.510;11.934;2024-02-26T12:16:37;99313.03;;;9.89;91.69
18533;BME280;9396;51.510;11.934;2024-02-26T12:19:06;99312.00;;;9.90;92.93
18533;BME280;9396;51.510;11.934;2024-02-26T12:21:34;99313.34;;;9.86;92.47
18533;BME280;9396;51.510;11.934;2024-02-26T12:24:10;99317.31;;;9.90;92.61
18533;BME280;9396;51.510;11.934;2024-02-26T12:26:37;99317.03;;;9.85;92.10
18533;BME280;9396;51.510;11.934;2024-02-26T12:29:04;99327.91;;;9.98;93.03
18533;BME280;9396;51.510;11.934;2024-02-26T12:31:32;99333.16;;;10.06;93.14
18533;BME280;9396;51.510;11.934;2024-02-26T12:34:02;99327.53;;;10.01;92.28
18533;BME280;9396;51.510;11.934;2024-02-26T12:36:30;99339.88;;;9.94;92.43
18533;BME280;9396;51.510;11.934;2024-02-26T12:38:57;99355.94;;;10.01;91.64
18533;BME280;9396;51.510;11.934;2024-02-26T12:41:26;99360.84;;;9.89;92.15
18533;BME280;9396;51.510;11.934;2024-02-26T12:43:53;99368.09;;;9.95;91.68
18533;BME280;9396;51.510;11.934;2024-02-26T12:46:20;99371.53;;;10.04;91.56
18533;BME280;9396;51.510;11.934;2024-02-26T12:48:48;99370.34;;;10.14;91.31
18533;BME280;9396;51.510;11.934;2024-02-26T12:51:16;99376.31;;;10.16;90.71
18533;BME280;9396;51.510;11.934;2024-02-26T12:53:44;99381.75;;;10.23;89.99
18533;BME280;9396;51.510;11.934;2024-02-26T12:56:11;99383.94;;;10.19;90.50
18533;BME280;9396;51.510;11.934;2024-02-26T12:58:39;99389.75;;;10.15;90.88
18533;BME280;9396;51.510;11.934;2024-02-26T13:01:06;99388.28;;;10.12;90.01
18533;BME280;9396;51.510;11.934;2024-02-26T13:03:34;99392.72;;;10.20;90.40
18533;BME280;9396;51.510;11.934;2024-02-26T13:06:05;99393.81;;;10.25;89.31
18533;BME280;9396;51.510;11.934;2024-02-26T13:08:32;99390.47;;;10.31;89.38